createdAt,value
2018-03-24T00:00:10.175Z,47.40
2018-03-24T00:02:40.001Z,44.40
2018-03-24T00:05:09.068Z,42.97
2018-03-24T00:07:38.879Z,41.77
2018-03-24T00:10:07.970Z,44.50
2018-03-24T00:12:37.029Z,46.17
2018-03-24T00:15:06.064Z,43.53
2018-03-24T00:17:35.905Z,42.50
2018-03-24T00:20:04.954Z,43.00
2018-03-24T00:22:34.029Z,43.37
2018-03-24T00:25:03.053Z,45.17
2018-03-24T00:27:32.906Z,44.57
2018-03-24T00:30:01.975Z,44.77
2018-03-24T00:32:31.788Z,45.13
2018-03-24T00:35:01.614Z,40.30
2018-03-24T00:37:30.654Z,43.60
2018-03-24T00:39:59.737Z,38.50
2018-03-24T00:42:28.779Z,45.03
2018-03-24T00:44:58.598Z,48.47
2018-03-24T00:47:28.437Z,45.83
2018-03-24T00:49:57.494Z,45.70
2018-03-24T00:52:27.362Z,45.00
2018-03-24T00:54:57.125Z,50.73
2018-03-24T00:57:26.959Z,47.17
2018-03-24T00:59:55.998Z,47.37
2018-03-24T01:02:25.070Z,43.07
2018-03-24T01:04:54.107Z,48.13
2018-03-24T01:07:23.181Z,47.70
2018-03-24T01:09:52.223Z,46.03
2018-03-24T01:12:21.297Z,51.13
2018-03-24T01:14:51.154Z,41.80
2018-03-24T01:17:20.185Z,45.63
2018-03-24T01:19:49.265Z,43.77
2018-03-24T01:22:18.306Z,52.00
2018-03-24T01:24:47.351Z,47.83
2018-03-24T01:27:16.441Z,49.60
2018-03-24T01:29:45.509Z,62.13
2018-03-24T01:32:14.587Z,52.33
2018-03-24T01:34:44.415Z,48.17
2018-03-24T01:37:13.465Z,54.53
2018-03-24T01:39:42.554Z,55.57
2018-03-24T01:42:11.605Z,47.97
2018-03-24T01:44:40.674Z,40.60
2018-03-24T01:47:09.734Z,47.13
2018-03-24T01:49:38.802Z,44.03
2018-03-24T01:52:07.909Z,47.57
2018-03-24T01:54:36.945Z,50.93
2018-03-24T01:57:05.996Z,46.50
2018-03-24T01:59:35.077Z,45.13
2018-03-24T02:02:04.126Z,44.70
2018-03-24T02:04:33.958Z,45.40
2018-03-24T02:07:03.019Z,47.17
2018-03-24T02:09:32.082Z,50.93
2018-03-24T02:12:01.130Z,45.63
2018-03-24T02:14:30.206Z,48.17
2018-03-24T02:16:59.257Z,50.67
2018-03-24T02:19:28.340Z,44.67
2018-03-24T02:21:57.399Z,53.83
2018-03-24T02:24:26.464Z,51.43
2018-03-24T02:26:55.498Z,43.67
2018-03-24T02:29:24.583Z,48.60
2018-03-24T02:31:54.386Z,46.23
2018-03-24T02:34:24.249Z,48.53
2018-03-24T02:36:53.299Z,52.03
2018-03-24T02:39:23.101Z,52.50
2018-03-24T02:41:52.953Z,49.20
2018-03-24T02:44:22.056Z,48.07
2018-03-24T02:46:51.127Z,50.83
2018-03-24T02:49:20.949Z,49.50
2018-03-24T02:51:50.007Z,44.93
2018-03-24T02:54:19.064Z,58.57
2018-03-24T02:56:48.141Z,53.63
2018-03-24T02:59:17.181Z,56.30
2018-03-24T03:01:46.256Z,56.53
2018-03-24T03:04:15.314Z,52.60
2018-03-24T03:06:44.386Z,50.37
2018-03-24T03:09:14.250Z,58.73
2018-03-24T03:11:43.303Z,47.33
2018-03-24T03:14:12.369Z,53.60
2018-03-24T03:16:41.439Z,54.67
2018-03-24T03:19:10.504Z,55.03
2018-03-24T03:21:56.443Z,46.13
2018-03-24T03:24:25.487Z,54.63
2018-03-24T03:26:54.531Z,46.00
2018-03-24T03:29:23.613Z,49.53
2018-03-24T03:31:57.610Z,50.13
2018-03-24T03:34:26.681Z,55.50
2018-03-24T03:36:55.729Z,52.73
2018-03-24T03:39:24.790Z,52.43
2018-03-24T03:41:53.838Z,54.83
2018-03-24T03:44:22.901Z,53.30
2018-03-24T03:46:51.974Z,51.13
2018-03-24T03:49:21.024Z,57.03
2018-03-24T03:51:50.945Z,49.17
2018-03-24T03:54:20.005Z,55.77
2018-03-24T03:56:49.029Z,55.10
2018-03-24T03:59:18.109Z,47.27
2018-03-24T04:01:47.932Z,49.40
2018-03-24T04:04:17.778Z,55.50
2018-03-24T04:06:46.857Z,43.13
2018-03-24T04:09:15.938Z,47.37
2018-03-24T04:11:45.747Z,50.93
2018-03-24T04:14:15.087Z,49.77
2018-03-24T04:16:44.175Z,53.70
2018-03-24T04:19:13.208Z,54.53
2018-03-24T04:21:42.287Z,49.70
2018-03-24T04:24:11.334Z,43.33
2018-03-24T04:26:40.381Z,49.60
2018-03-24T04:29:09.476Z,44.67
2018-03-24T04:31:38.524Z,44.23
2018-03-24T04:34:08.354Z,45.53
2018-03-24T04:36:37.432Z,45.63
2018-03-24T04:39:06.483Z,39.93
2018-03-24T04:41:35.545Z,48.90
2018-03-24T04:44:04.594Z,46.40
2018-03-24T04:46:34.423Z,47.57
2018-03-24T04:49:03.494Z,43.87
2018-03-24T04:51:33.301Z,44.33
2018-03-24T04:54:03.146Z,46.80
2018-03-24T04:56:32.193Z,49.87
2018-03-24T04:59:01.237Z,52.53
2018-03-24T05:01:30.315Z,49.20
2018-03-24T05:04:00.166Z,54.43
2018-03-24T05:06:29.951Z,46.50
2018-03-24T05:08:59.025Z,185.50
2018-03-24T05:11:28.837Z,133.80
2018-03-24T05:13:58.686Z,129.20
2018-03-24T05:16:27.731Z,61.30
2018-03-24T05:18:56.805Z,53.00
2018-03-24T05:21:25.841Z,52.13
2018-03-24T05:23:54.893Z,53.80
2018-03-24T05:26:23.972Z,53.13
2018-03-24T05:28:53.024Z,52.73
2018-03-24T05:31:22.872Z,49.90
2018-03-24T05:33:51.911Z,49.00
2018-03-24T05:36:21.767Z,54.07
2018-03-24T05:38:50.812Z,50.97
2018-03-24T05:41:19.887Z,52.97
2018-03-24T05:43:48.914Z,48.00
2018-03-24T05:46:18.751Z,46.43
2018-03-24T05:48:47.795Z,50.90
2018-03-24T05:51:16.880Z,50.17
2018-03-24T05:53:45.918Z,45.10
2018-03-24T05:56:15.751Z,49.80
2018-03-24T05:58:44.808Z,48.77
2018-03-24T06:01:13.885Z,44.33
2018-03-24T06:03:42.934Z,42.30
2018-03-24T06:06:11.998Z,47.10
2018-03-24T06:08:41.833Z,46.40
2018-03-24T06:11:10.889Z,42.30
2018-03-24T06:13:39.954Z,38.13
2018-03-24T06:16:09.037Z,47.40
2018-03-24T06:18:38.086Z,36.87
2018-03-24T06:21:07.922Z,37.50
2018-03-24T06:23:36.959Z,42.60
2018-03-24T06:26:06.029Z,42.93
2018-03-24T06:28:35.101Z,34.70
2018-03-24T06:31:15.018Z,40.63
2018-03-24T06:33:44.119Z,37.50
2018-03-24T06:36:13.186Z,40.10
2018-03-24T06:38:42.251Z,40.20
2018-03-24T06:41:11.333Z,39.77
2018-03-24T06:43:40.378Z,34.40
2018-03-24T06:46:09.464Z,37.50
2018-03-24T06:48:39.293Z,35.07
2018-03-24T06:51:08.359Z,34.40
2018-03-24T06:53:37.397Z,33.53
2018-03-24T06:56:06.472Z,37.57
2018-03-24T06:58:35.539Z,42.50
2018-03-24T07:01:04.567Z,37.17
2018-03-24T07:03:33.594Z,30.30
2018-03-24T07:06:02.682Z,34.67
2018-03-24T07:08:32.482Z,34.57
2018-03-24T07:11:01.510Z,36.37
2018-03-24T07:13:30.570Z,50.80
2018-03-24T07:16:00.363Z,63.80
2018-03-24T07:18:29.420Z,73.33
2018-03-24T07:20:58.452Z,49.43
2018-03-24T07:23:27.506Z,35.63
2018-03-24T07:25:56.577Z,42.33
2018-03-24T07:28:25.609Z,37.87
2018-03-24T07:30:54.641Z,38.70
2018-03-24T07:33:23.695Z,42.50
2018-03-24T07:35:52.754Z,36.20
2018-03-24T07:38:21.810Z,39.70
2018-03-24T07:40:50.865Z,37.90
2018-03-24T07:43:19.922Z,42.43
2018-03-24T07:45:49.746Z,38.77
2018-03-24T07:48:19.530Z,38.13
2018-03-24T07:50:48.602Z,38.07
2018-03-24T07:53:17.662Z,37.83
2018-03-24T07:55:46.722Z,40.07
2018-03-24T07:58:15.745Z,43.60
2018-03-24T08:00:44.801Z,35.50
2018-03-24T08:03:13.829Z,39.40
2018-03-24T08:05:42.881Z,39.43
2018-03-24T08:08:11.915Z,39.13
2018-03-24T08:10:40.973Z,40.70
2018-03-24T08:13:10.005Z,36.13
2018-03-24T08:15:39.060Z,54.17
2018-03-24T08:18:08.117Z,48.23
2018-03-24T08:20:37.146Z,46.70
2018-03-24T08:23:06.205Z,43.60
2018-03-24T08:25:35.245Z,38.00
2018-03-24T08:28:04.261Z,39.70
2018-03-24T08:30:33.322Z,37.53
2018-03-24T08:33:02.383Z,35.70
2018-03-24T08:35:31.421Z,39.20
2018-03-24T08:38:00.476Z,38.50
2018-03-24T08:40:29.526Z,47.20
2018-03-24T08:42:59.357Z,36.87
2018-03-24T08:45:28.395Z,35.37
2018-03-24T08:47:57.446Z,27.23
2018-03-24T08:50:26.470Z,33.23
2018-03-24T08:52:55.525Z,38.70
2018-03-24T08:55:24.598Z,50.60
2018-03-24T08:57:53.609Z,37.10
2018-03-24T09:00:23.403Z,36.30
2018-03-24T09:02:53.236Z,33.07
2018-03-24T09:05:22.259Z,25.83
2018-03-24T09:07:51.296Z,23.90
2018-03-24T09:10:20.351Z,21.93
2018-03-24T09:12:49.374Z,21.27
2018-03-24T09:15:18.434Z,24.43
2018-03-24T09:17:47.460Z,26.53
2018-03-24T09:20:16.520Z,27.70
2018-03-24T09:22:45.553Z,24.73
2018-03-24T09:25:14.610Z,17.77
2018-03-24T09:27:43.639Z,19.23
2018-03-24T09:30:12.683Z,20.27
2018-03-24T09:32:41.729Z,18.07
2018-03-24T09:35:10.756Z,22.90
2018-03-24T09:37:39.830Z,20.83
2018-03-24T09:40:09.622Z,20.73
2018-03-24T09:42:38.696Z,20.00
2018-03-24T09:45:07.722Z,20.00
2018-03-24T09:47:36.769Z,18.70
2018-03-24T09:50:05.806Z,18.27
2018-03-24T09:52:34.857Z,19.30
2018-03-24T09:55:03.893Z,16.50
2018-03-24T09:57:32.917Z,15.90
2018-03-24T10:00:01.989Z,12.93
2018-03-24T10:02:31.013Z,14.10
2018-03-24T10:05:00.092Z,13.30
2018-03-24T10:07:29.882Z,12.93
2018-03-24T10:09:58.948Z,14.30
2018-03-24T10:12:28.807Z,13.47
2018-03-24T10:14:58.624Z,12.90
2018-03-24T10:17:28.422Z,12.43
2018-03-24T10:19:58.302Z,15.87
2018-03-24T10:36:08.737Z,11.23
2018-03-24T10:38:37.804Z,9.30
2018-03-24T10:41:06.864Z,12.47
2018-03-24T10:43:39.868Z,17.83
2018-03-24T10:46:08.845Z,19.03
2018-03-24T10:48:37.933Z,19.30
2018-03-24T10:51:06.956Z,16.80
2018-03-24T10:53:36.806Z,18.33
2018-03-24T10:56:05.846Z,16.20
2018-03-24T10:58:36.013Z,14.90
2018-03-24T11:01:20.614Z,17.57
2018-03-24T11:03:49.656Z,17.07
2018-03-24T11:06:18.726Z,18.50
2018-03-24T11:08:48.529Z,15.53
2018-03-24T11:11:18.772Z,18.53
2018-03-24T11:13:47.785Z,17.33
2018-03-24T11:16:16.828Z,16.00
2018-03-24T11:18:45.895Z,15.00
2018-03-24T11:21:14.958Z,14.17
2018-03-24T11:23:44.019Z,14.47
2018-03-24T11:26:13.054Z,11.27
2018-03-24T11:28:42.129Z,10.47
2018-03-24T11:31:11.164Z,21.27
2018-03-24T11:33:40.197Z,13.30
2018-03-24T11:36:10.022Z,12.27
2018-03-24T11:38:39.846Z,10.73
2018-03-24T11:41:08.946Z,13.47
2018-03-24T11:43:38.062Z,13.87
2018-03-24T11:46:07.097Z,14.60
2018-03-24T11:48:36.249Z,11.53
2018-03-24T11:51:05.321Z,10.80
2018-03-24T11:53:45.713Z,10.70
2018-03-24T11:56:14.811Z,14.60
2018-03-24T11:58:44.601Z,13.37
2018-03-24T12:01:13.631Z,11.63
2018-03-24T12:03:42.689Z,10.80
2018-03-24T12:06:11.745Z,11.87
2018-03-24T12:08:40.777Z,10.93
2018-03-24T12:11:09.858Z,11.00
2018-03-24T12:13:38.913Z,11.73
2018-03-24T12:16:07.950Z,10.23
2018-03-24T12:18:36.977Z,10.03
2018-03-24T12:21:06.039Z,11.23
2018-03-24T12:23:35.101Z,9.97
2018-03-24T12:26:04.901Z,11.03
2018-03-24T12:28:33.976Z,11.70
2018-03-24T12:31:03.017Z,11.70
2018-03-24T12:33:32.845Z,13.17
2018-03-24T12:36:01.926Z,27.87
2018-03-24T12:38:31.732Z,16.53
2018-03-24T12:41:01.582Z,16.07
2018-03-24T12:43:30.650Z,24.33
2018-03-24T12:46:00.469Z,29.63
2018-03-24T12:48:29.521Z,14.97
2018-03-24T12:50:58.597Z,12.33
2018-03-24T12:53:27.675Z,11.50
2018-03-24T12:55:56.745Z,13.57
2018-03-24T12:58:25.797Z,12.73
2018-03-24T13:00:54.862Z,14.13
2018-03-24T13:03:23.936Z,15.53
2018-03-24T13:05:52.977Z,14.57
2018-03-24T13:08:22.066Z,16.23
2018-03-24T13:10:51.169Z,14.83
2018-03-24T13:13:20.227Z,13.80
2018-03-24T13:15:49.269Z,16.13
2018-03-24T13:18:18.420Z,37.07
2018-03-24T13:20:47.507Z,14.33
2018-03-24T13:23:16.591Z,16.23
2018-03-24T13:25:45.645Z,15.47
2018-03-24T13:28:14.686Z,14.37
2018-03-24T13:30:46.556Z,15.67
2018-03-24T13:33:15.589Z,13.63
2018-03-24T13:35:44.669Z,14.23
2018-03-24T13:38:13.714Z,25.70
2018-03-24T13:40:42.800Z,14.23
2018-03-24T13:43:12.614Z,14.53
2018-03-24T13:45:42.443Z,12.83
2018-03-24T13:48:11.518Z,13.83
2018-03-24T13:50:41.343Z,15.70
2018-03-24T13:53:10.400Z,12.30
2018-03-24T13:55:39.468Z,13.77
2018-03-24T13:58:08.510Z,13.90
2018-03-24T14:00:38.346Z,13.40
2018-03-24T14:03:07.417Z,13.33
2018-03-24T14:05:37.240Z,13.63
2018-03-24T14:08:06.302Z,52.63
2018-03-24T14:10:35.359Z,17.17
2018-03-24T14:13:04.421Z,11.90
2018-03-24T14:15:33.460Z,12.13
2018-03-24T14:18:02.599Z,13.27
2018-03-24T14:20:31.621Z,12.07
2018-03-24T14:23:00.692Z,13.37
2018-03-24T14:25:30.496Z,12.47
2018-03-24T14:28:00.333Z,11.50
2018-03-24T14:30:29.374Z,12.50
2018-03-24T14:32:58.459Z,11.03
2018-03-24T14:35:27.528Z,11.70
2018-03-24T14:37:56.570Z,12.30
2018-03-24T14:40:25.615Z,12.33
2018-03-24T14:42:54.654Z,11.93
2018-03-24T14:45:23.744Z,11.63
2018-03-24T14:47:52.773Z,33.53
2018-03-24T14:50:22.580Z,25.77
2018-03-24T14:52:54.592Z,11.60
2018-03-24T14:55:23.621Z,11.57
2018-03-24T14:57:52.689Z,12.50
2018-03-24T15:00:21.722Z,12.27
2018-03-24T15:02:51.557Z,11.17
2018-03-24T15:05:20.607Z,11.60
2018-03-24T15:07:49.657Z,12.10
2018-03-24T15:10:18.703Z,11.40
2018-03-24T15:12:47.969Z,12.17
2018-03-24T15:15:17.033Z,12.20
2018-03-24T15:17:46.084Z,19.30
2018-03-24T15:20:15.145Z,19.10
2018-03-24T15:22:44.216Z,14.00
2018-03-24T15:25:13.283Z,33.20
2018-03-24T15:27:42.367Z,12.90
2018-03-24T15:30:29.055Z,10.07
2018-03-24T15:33:15.858Z,12.90
2018-03-24T15:36:02.677Z,12.30
2018-03-24T15:38:31.722Z,11.30
2018-03-24T15:41:01.558Z,35.23
2018-03-24T15:43:30.610Z,59.50
2018-03-24T15:46:00.444Z,70.00
2018-03-24T15:48:30.277Z,25.67
2018-03-24T15:50:59.382Z,38.83
2018-03-24T15:53:29.166Z,15.50
2018-03-24T15:55:58.217Z,13.10
2018-03-24T15:58:27.323Z,11.10
2018-03-24T16:00:56.437Z,12.10
2018-03-24T16:03:25.450Z,11.80
2018-03-24T16:05:54.534Z,11.60
2018-03-24T16:08:24.384Z,10.83
2018-03-24T16:10:53.522Z,13.57
2018-03-24T16:13:22.755Z,13.67
2018-03-24T16:15:52.770Z,10.73
2018-03-24T16:18:22.775Z,24.03
2018-03-24T16:20:52.085Z,24.57
2018-03-24T16:23:22.114Z,12.20
2018-03-24T16:25:51.438Z,13.30
2018-03-24T16:28:20.756Z,11.37
2018-03-24T16:30:50.083Z,12.07
2018-03-24T16:33:19.380Z,14.07
2018-03-24T16:35:48.704Z,25.33
2018-03-24T16:38:18.737Z,26.03
2018-03-24T16:40:48.027Z,22.53
2018-03-24T16:43:18.123Z,23.67
2018-03-24T16:45:47.423Z,25.73
2018-03-24T16:48:16.776Z,28.00
2018-03-24T16:50:46.114Z,27.33
2018-03-24T16:53:15.410Z,26.07
2018-03-24T16:55:44.713Z,26.00
2018-03-24T16:58:14.027Z,26.93
2018-03-24T17:00:43.321Z,28.63
2018-03-24T17:03:12.648Z,28.83
2018-03-24T17:05:42.772Z,30.47
2018-03-24T17:08:12.059Z,29.07
2018-03-24T17:10:42.119Z,37.23
2018-03-24T17:13:11.444Z,53.07
2018-03-24T17:15:40.778Z,34.90
2018-03-24T17:18:10.816Z,24.90
2018-03-24T17:20:40.161Z,24.67
2018-03-24T17:23:09.464Z,30.27
2018-03-24T17:25:38.822Z,27.17
2018-03-24T17:28:08.130Z,28.07
2018-03-24T17:30:37.453Z,29.97
2018-03-24T17:33:06.776Z,28.33
2018-03-24T17:35:36.104Z,32.60
2018-03-24T17:38:06.206Z,28.90
2018-03-24T17:40:35.530Z,29.20
2018-03-24T17:43:04.894Z,28.30
2018-03-24T17:45:34.197Z,27.20
2018-03-24T17:48:03.590Z,29.57
2018-03-24T17:50:33.820Z,28.33
2018-03-24T17:53:03.148Z,27.00
2018-03-24T17:55:33.227Z,33.27
2018-03-24T17:58:02.576Z,26.67
2018-03-24T18:00:32.658Z,25.97
2018-03-24T18:03:01.979Z,32.00
2018-03-24T18:05:32.078Z,30.17
2018-03-24T18:08:01.393Z,34.27
2018-03-24T18:10:31.497Z,31.67
2018-03-24T18:13:00.805Z,28.77
2018-03-24T18:15:30.157Z,29.57
2018-03-24T18:17:59.524Z,31.90
2018-03-24T18:20:29.646Z,29.50
2018-03-24T18:22:59.051Z,29.00
2018-03-24T18:25:29.144Z,28.67
2018-03-24T18:27:58.491Z,29.30
2018-03-24T18:30:27.808Z,30.43
2018-03-24T18:32:57.150Z,28.50
2018-03-24T18:35:26.469Z,28.73
2018-03-24T18:37:56.613Z,30.47
2018-03-24T18:40:25.946Z,32.93
2018-03-24T18:42:55.262Z,34.17
2018-03-24T18:45:24.626Z,34.43
2018-03-24T18:47:53.984Z,30.67
2018-03-24T18:50:24.078Z,56.40
2018-03-24T18:52:53.413Z,53.10
2018-03-24T18:55:23.496Z,45.77
2018-03-24T18:57:52.838Z,28.50
2018-03-24T19:00:22.184Z,26.40
2018-03-24T19:02:51.530Z,30.87
2018-03-24T19:05:21.601Z,30.10
2018-03-24T19:07:50.946Z,43.63
2018-03-24T19:10:21.030Z,36.60
2018-03-24T19:12:50.373Z,27.40
2018-03-24T19:15:20.460Z,26.10
2018-03-24T19:17:49.782Z,28.57
2018-03-24T19:20:19.894Z,26.67
2018-03-24T19:22:49.234Z,24.60
2018-03-24T19:25:18.575Z,28.00
2018-03-24T19:27:47.882Z,26.73
2018-03-24T19:30:17.223Z,25.93
2018-03-24T19:32:46.536Z,27.60
2018-03-24T19:35:15.875Z,26.07
2018-03-24T19:37:45.166Z,24.10
2018-03-24T19:40:15.265Z,26.83
2018-03-24T19:42:44.587Z,26.67
2018-03-24T19:45:13.929Z,23.27
2018-03-24T19:47:44.031Z,26.47
2018-03-24T19:50:13.341Z,26.10
2018-03-24T19:52:42.805Z,25.20
2018-03-24T19:55:12.125Z,21.80
2018-03-24T19:57:41.452Z,24.40
2018-03-24T20:00:12.192Z,24.10
2018-03-24T20:02:42.247Z,25.27
2018-03-24T20:05:11.603Z,24.27
2018-03-24T20:07:41.716Z,23.67
2018-03-24T20:10:11.047Z,27.43
2018-03-24T20:12:40.353Z,23.57
2018-03-24T20:15:09.679Z,26.77
2018-03-24T20:17:38.999Z,25.77
2018-03-24T20:20:08.320Z,28.40
2018-03-24T20:22:37.624Z,29.70
2018-03-24T20:25:07.838Z,26.20
2018-03-24T20:27:37.170Z,64.87
2018-03-24T20:30:06.492Z,50.77
2018-03-24T20:32:35.827Z,26.50
2018-03-24T20:35:05.156Z,24.80
2018-03-24T20:37:34.459Z,26.57
2018-03-24T20:40:04.574Z,26.90
2018-03-24T20:42:34.669Z,24.70
2018-03-24T20:45:04.008Z,27.10
2018-03-24T20:47:33.350Z,24.80
2018-03-24T20:50:02.691Z,27.47
2018-03-24T20:52:32.749Z,32.10
2018-03-24T20:55:02.073Z,24.07
2018-03-24T20:57:31.386Z,26.80
2018-03-24T21:00:00.651Z,24.23
2018-03-24T21:02:29.832Z,25.50
2018-03-24T21:04:59.074Z,24.63
2018-03-24T21:07:28.171Z,24.90
2018-03-24T21:09:57.396Z,27.80
2018-03-24T21:12:27.380Z,29.00
2018-03-24T21:14:56.527Z,27.40
2018-03-24T21:17:25.724Z,29.57
2018-03-24T21:19:54.786Z,27.00
2018-03-24T21:22:23.909Z,29.17
2018-03-24T21:24:53.174Z,26.10
2018-03-24T21:27:22.175Z,26.97
2018-03-24T21:29:52.182Z,25.80
2018-03-24T21:32:22.018Z,27.60
2018-03-24T21:34:51.107Z,26.17
2018-03-24T21:37:20.116Z,28.70
2018-03-24T21:39:49.164Z,26.63
2018-03-24T21:42:18.194Z,30.70
2018-03-24T21:44:47.239Z,26.53
2018-03-24T21:47:16.290Z,26.37
2018-03-24T21:49:45.331Z,26.53
2018-03-24T21:52:14.341Z,24.00
2018-03-24T21:54:44.166Z,25.90
2018-03-24T21:57:13.952Z,28.27
2018-03-24T21:59:42.982Z,28.63
2018-03-24T22:02:12.009Z,29.00
2018-03-24T22:04:41.038Z,28.07
2018-03-24T22:07:10.098Z,32.77
2018-03-24T22:09:39.117Z,28.43
2018-03-24T22:12:08.147Z,27.63
2018-03-24T22:14:37.205Z,26.50
2018-03-24T22:17:06.227Z,28.40
2018-03-24T22:19:36.013Z,30.10
2018-03-24T22:22:05.065Z,29.47
2018-03-24T22:24:34.097Z,31.23
2018-03-24T22:27:03.136Z,28.13
2018-03-24T22:29:32.194Z,25.90
2018-03-24T22:32:01.449Z,29.17
2018-03-24T22:34:30.484Z,32.17
2018-03-24T22:36:59.521Z,26.00
2018-03-24T22:39:28.546Z,28.77
2018-03-24T22:41:57.580Z,29.30
2018-03-24T22:44:26.629Z,30.20
2018-03-24T22:46:55.657Z,29.67
2018-03-24T22:49:24.707Z,30.47
2018-03-24T22:51:53.739Z,27.90
2018-03-24T22:54:22.795Z,33.43
2018-03-24T22:56:51.836Z,27.93
2018-03-24T22:59:21.657Z,31.00
2018-03-24T23:01:51.480Z,33.40
2018-03-24T23:04:21.269Z,27.33
2018-03-24T23:06:51.105Z,31.93
2018-03-24T23:09:20.138Z,26.50
2018-03-24T23:11:49.174Z,32.90
2018-03-24T23:14:18.993Z,32.90
2018-03-24T23:16:48.790Z,30.07
2018-03-24T23:19:17.839Z,28.53
2018-03-24T23:21:46.866Z,29.00
2018-03-24T23:24:15.926Z,29.90
2018-03-24T23:26:44.953Z,29.70
2018-03-24T23:29:14.009Z,28.17
2018-03-24T23:31:43.057Z,29.80
2018-03-24T23:34:12.845Z,29.83
2018-03-24T23:36:41.914Z,31.60
2018-03-24T23:39:10.933Z,31.20
2018-03-24T23:41:39.994Z,30.70
2018-03-24T23:44:09.069Z,28.47
2018-03-24T23:46:38.101Z,29.67
2018-03-24T23:49:07.125Z,33.10
2018-03-24T23:51:36.180Z,25.23
2018-03-24T23:54:05.207Z,28.77
2018-03-24T23:56:34.264Z,30.53
2018-03-24T23:59:03.322Z,28.87
